createdAt,value
2018-09-14T00:02:28.195Z,44.23
2018-09-14T00:07:23.334Z,43.77
2018-09-14T00:12:18.242Z,42.57
2018-09-14T00:17:12.770Z,42.00
2018-09-14T00:22:07.408Z,42.47
2018-09-14T00:27:02.092Z,40.63
2018-09-14T00:31:56.663Z,42.83
2018-09-14T00:36:51.326Z,43.90
2018-09-14T00:41:45.990Z,43.40
2018-09-14T00:46:40.496Z,43.77
2018-09-14T00:51:34.968Z,43.87
2018-09-14T00:56:29.488Z,42.47
2018-09-14T01:01:25.032Z,44.10
2018-09-14T01:06:19.553Z,46.17
2018-09-14T01:11:14.263Z,45.50
2018-09-14T01:16:09.548Z,44.40
2018-09-14T01:21:04.855Z,44.50
2018-09-14T01:26:00.361Z,43.37
2018-09-14T01:30:55.192Z,44.43
2018-09-14T01:35:55.263Z,44.00
2018-09-14T01:40:50.102Z,42.73
2018-09-14T01:45:45.082Z,41.70
2018-09-14T01:50:40.184Z,42.30
2018-09-14T01:55:35.102Z,41.27
2018-09-14T02:00:29.558Z,41.77
2018-09-14T02:05:25.418Z,39.80
2018-09-14T02:10:24.126Z,44.07
2018-09-14T02:15:19.284Z,41.50
2018-09-14T02:20:13.792Z,40.97
2018-09-14T02:25:08.439Z,41.33
2018-09-14T02:30:02.945Z,39.33
2018-09-14T02:34:58.168Z,40.40
2018-09-14T02:39:53.416Z,38.07
2018-09-14T02:44:48.016Z,40.00
2018-09-14T02:49:42.481Z,39.13
2018-09-14T02:54:38.234Z,38.47
2018-09-14T02:59:33.651Z,42.80
2018-09-14T03:04:28.755Z,41.13
2018-09-14T03:09:23.283Z,40.37
2018-09-14T03:14:17.779Z,39.87
2018-09-14T03:19:12.228Z,38.90
2018-09-14T03:24:06.833Z,37.20
2018-09-14T03:29:02.300Z,36.03
2018-09-14T03:33:56.764Z,36.70
2018-09-14T03:38:51.247Z,34.97
2018-09-14T03:43:45.728Z,36.23
2018-09-14T03:48:40.233Z,37.17
2018-09-14T03:53:34.736Z,35.80
2018-09-14T03:58:29.233Z,36.80
2018-09-14T04:03:24.063Z,35.80
2018-09-14T04:08:18.524Z,34.40
2018-09-14T04:13:13.223Z,33.03
2018-09-14T04:18:07.958Z,34.27
2018-09-14T04:23:02.445Z,35.07
2018-09-14T04:27:57.392Z,35.13
2018-09-14T04:32:51.916Z,33.73
2018-09-14T04:37:46.712Z,34.20
2018-09-14T04:42:41.232Z,35.17
2018-09-14T04:47:35.768Z,35.30
2018-09-14T04:52:30.234Z,36.47
2018-09-14T04:57:24.779Z,35.70
2018-09-14T05:02:19.418Z,35.50
2018-09-14T05:07:13.918Z,33.63
2018-09-14T05:12:08.530Z,33.17
2018-09-14T05:17:03.040Z,33.80
2018-09-14T05:21:57.536Z,33.40
2018-09-14T05:26:52.018Z,36.83
2018-09-14T05:31:46.493Z,33.93
2018-09-14T05:36:40.963Z,36.00
2018-09-14T05:41:35.444Z,32.47
2018-09-14T05:46:30.003Z,31.70
2018-09-14T05:51:24.543Z,33.20
2018-09-14T05:56:19.052Z,32.90
2018-09-14T06:01:13.525Z,30.20
2018-09-14T06:06:08.615Z,26.70
2018-09-14T06:11:03.289Z,26.40
2018-09-14T06:15:57.773Z,26.10
2018-09-14T06:20:52.652Z,23.87
2018-09-14T06:25:47.213Z,22.93
2018-09-14T06:30:41.795Z,18.30
2018-09-14T06:35:36.549Z,17.17
2018-09-14T06:40:30.986Z,16.50
2018-09-14T06:45:25.535Z,15.80
2018-09-14T06:50:20.227Z,15.70
2018-09-14T06:55:14.688Z,15.13
2018-09-14T07:00:09.540Z,15.83
2018-09-14T07:05:04.179Z,15.83
2018-09-14T07:09:58.763Z,17.37
2018-09-14T07:14:53.546Z,17.03
2018-09-14T07:19:48.027Z,17.17
2018-09-14T07:24:42.836Z,14.97
2018-09-14T07:29:54.434Z,15.10
2018-09-14T07:34:48.931Z,15.27
2018-09-14T07:39:43.398Z,14.83
2018-09-14T07:44:37.874Z,13.73
2018-09-14T07:49:32.330Z,14.70
2018-09-14T07:54:26.834Z,13.47
2018-09-14T07:59:21.641Z,15.93
2018-09-14T08:04:16.212Z,15.17
2018-09-14T08:09:12.629Z,15.10
2018-09-14T08:14:07.423Z,15.20
2018-09-14T08:19:01.944Z,15.27
2018-09-14T08:23:56.525Z,15.13
2018-09-14T08:28:51.288Z,15.77
2018-09-14T08:33:45.776Z,16.37
2018-09-14T08:38:40.420Z,14.70
2018-09-14T08:43:35.224Z,16.87
2018-09-14T08:48:29.750Z,17.60
2018-09-14T08:53:24.216Z,16.87
2018-09-14T08:58:18.809Z,17.50
2018-09-14T09:03:13.658Z,17.90
2018-09-14T09:08:08.438Z,17.87
2018-09-14T09:13:03.218Z,18.40
2018-09-14T09:17:57.981Z,19.10
2018-09-14T09:22:53.126Z,18.73
2018-09-14T09:27:48.126Z,19.40
2018-09-14T09:32:43.202Z,19.20
2018-09-14T09:37:38.158Z,21.60
2018-09-14T09:42:33.404Z,20.23
2018-09-14T09:47:28.172Z,20.97
2018-09-14T09:52:23.119Z,21.83
2018-09-14T09:57:18.308Z,23.27
2018-09-14T10:02:18.291Z,24.23
2018-09-14T10:07:13.486Z,23.07
2018-09-14T10:12:08.224Z,23.63
2018-09-14T10:17:03.402Z,21.13
2018-09-14T10:21:58.150Z,20.27
2018-09-14T10:26:53.003Z,19.30
2018-09-14T10:31:47.910Z,15.67
2018-09-14T10:36:42.400Z,16.70
2018-09-14T10:41:36.902Z,15.87
2018-09-14T10:46:31.472Z,13.33
2018-09-14T10:51:26.136Z,13.90
2018-09-14T10:56:20.642Z,12.53
2018-09-14T11:01:16.238Z,13.63
2018-09-14T11:06:11.156Z,13.67
2018-09-14T11:11:05.818Z,13.90
2018-09-14T11:16:00.434Z,13.63
2018-09-14T11:20:55.244Z,11.80
2018-09-14T11:25:49.766Z,9.93
2018-09-14T11:30:44.228Z,10.77
2018-09-14T11:35:38.716Z,9.43
2018-09-14T11:40:33.231Z,8.70
2018-09-14T11:45:27.710Z,8.87
2018-09-14T11:50:22.211Z,8.30
2018-09-14T11:55:17.273Z,6.73
2018-09-14T12:00:11.827Z,6.40
2018-09-14T12:05:06.724Z,7.23
2018-09-14T12:10:01.203Z,7.33
2018-09-14T12:14:55.792Z,6.60
2018-09-14T12:19:50.274Z,6.97
2018-09-14T12:24:45.077Z,6.17
2018-09-14T12:29:39.733Z,6.60
2018-09-14T12:34:34.204Z,5.47
2018-09-14T12:39:28.672Z,7.13
2018-09-14T12:44:23.136Z,7.23
2018-09-14T12:49:17.624Z,7.37
2018-09-14T12:54:12.222Z,6.47
2018-09-14T12:59:06.919Z,6.03
2018-09-14T13:04:01.586Z,5.90
2018-09-14T13:08:56.249Z,6.23
2018-09-14T13:13:50.768Z,5.73
2018-09-14T13:18:45.236Z,7.07
2018-09-14T13:23:39.699Z,6.50
2018-09-14T13:28:34.203Z,6.27
2018-09-14T13:33:29.102Z,6.60
2018-09-14T13:38:23.590Z,8.63
2018-09-14T13:43:19.382Z,6.23
2018-09-14T13:48:13.950Z,5.30
2018-09-14T13:53:08.433Z,4.83
2018-09-14T13:58:03.065Z,5.40
2018-09-14T14:02:57.554Z,6.10
2018-09-14T14:07:52.172Z,6.10
2018-09-14T14:12:47.259Z,6.37
2018-09-14T14:17:41.812Z,5.27
2018-09-14T14:22:37.369Z,4.80
2018-09-14T14:27:32.271Z,4.80
2018-09-14T14:32:27.186Z,4.43
2018-09-14T14:37:22.140Z,4.00
2018-09-14T14:42:20.376Z,4.30
2018-09-14T14:47:15.388Z,4.23
2018-09-14T14:52:10.377Z,4.00
2018-09-14T14:57:05.383Z,4.70
2018-09-14T15:02:00.320Z,4.20
2018-09-14T15:06:55.190Z,4.13
2018-09-14T15:11:49.937Z,3.93
2018-09-14T15:16:44.960Z,3.67
2018-09-14T15:21:40.223Z,4.13
2018-09-14T15:26:35.428Z,3.40
2018-09-14T15:31:30.406Z,3.33
2018-09-14T15:36:25.313Z,3.30
2018-09-14T15:41:20.548Z,2.97
2018-09-14T15:46:16.472Z,3.00
2018-09-14T15:51:11.062Z,3.00
2018-09-14T15:56:05.720Z,2.90
2018-09-14T16:01:00.786Z,3.43
2018-09-14T16:05:55.844Z,2.73
2018-09-14T16:10:50.444Z,3.50
2018-09-14T16:15:44.902Z,2.90
2018-09-14T16:20:39.910Z,3.07
2018-09-14T16:25:34.742Z,2.80
2018-09-14T16:30:29.464Z,3.40
2018-09-14T16:35:24.133Z,2.93
2018-09-14T16:40:18.747Z,3.43
2018-09-14T16:45:13.871Z,3.27
2018-09-14T16:50:08.344Z,3.37
2018-09-14T16:55:02.916Z,3.43
2018-09-14T16:59:57.550Z,3.37
2018-09-14T17:04:52.186Z,2.77
2018-09-14T17:09:46.690Z,2.90
2018-09-14T17:14:41.232Z,2.37
2018-09-14T17:19:36.214Z,2.17
2018-09-14T17:24:30.844Z,2.67
2018-09-14T17:29:25.360Z,2.77
2018-09-14T17:34:19.877Z,2.77
2018-09-14T17:39:14.429Z,2.90
2018-09-14T17:44:09.069Z,2.83
2018-09-14T17:49:04.730Z,2.70
2018-09-14T17:53:59.538Z,2.50
2018-09-14T17:58:54.286Z,2.40
2018-09-14T18:03:48.766Z,2.57
2018-09-14T18:08:43.226Z,2.40
2018-09-14T18:13:38.231Z,2.77
2018-09-14T18:18:32.866Z,2.63
2018-09-14T18:23:27.568Z,2.63
2018-09-14T18:28:22.067Z,2.60
2018-09-14T18:33:17.055Z,2.90
2018-09-14T18:38:11.567Z,2.50
2018-09-14T18:43:06.275Z,2.80
2018-09-14T18:48:00.740Z,2.60
2018-09-14T18:52:55.444Z,2.70
2018-09-14T18:57:50.016Z,2.90
2018-09-14T19:02:44.539Z,3.33
2018-09-14T19:07:39.332Z,3.20
2018-09-14T19:12:34.292Z,3.20
2018-09-14T19:17:28.856Z,3.77
2018-09-14T19:22:23.534Z,3.03
2018-09-14T19:27:19.665Z,3.10
2018-09-14T19:32:15.223Z,3.00
2018-09-14T19:37:12.135Z,3.23
2018-09-14T19:42:06.701Z,3.47
2018-09-14T19:47:01.314Z,4.10
2018-09-14T19:51:55.893Z,3.00
2018-09-14T19:56:50.652Z,3.10
2018-09-14T20:01:45.144Z,3.40
2018-09-14T20:06:39.600Z,3.07
2018-09-14T20:11:34.739Z,3.40
2018-09-14T20:16:29.664Z,2.93
2018-09-14T20:21:24.180Z,3.20
2018-09-14T20:26:51.755Z,3.03
2018-09-14T20:31:47.652Z,3.40
2018-09-14T20:36:42.180Z,3.30
2018-09-14T20:41:36.915Z,3.27
2018-09-14T20:46:31.484Z,3.20
2018-09-14T20:51:25.994Z,3.30
2018-09-14T20:56:20.481Z,3.67
2018-09-14T21:01:15.190Z,3.70
2018-09-14T21:06:09.880Z,3.37
2018-09-14T21:11:04.518Z,3.17
2018-09-14T21:15:59.005Z,3.00
2018-09-14T21:20:53.495Z,3.13
2018-09-14T21:25:48.127Z,3.60
2018-09-14T21:30:42.682Z,2.90
2018-09-14T21:35:37.187Z,2.97
2018-09-14T21:40:31.862Z,2.90
2018-09-14T21:45:27.646Z,3.10
2018-09-14T21:50:22.142Z,2.70
2018-09-14T21:55:16.641Z,3.23
2018-09-14T22:00:17.262Z,3.10
2018-09-14T22:05:12.051Z,3.23
2018-09-14T22:10:07.169Z,3.17
2018-09-14T22:15:01.902Z,3.60
2018-09-14T22:19:56.690Z,3.90
2018-09-14T22:24:51.180Z,2.90
2018-09-14T22:29:45.937Z,3.07
2018-09-14T22:34:40.576Z,3.40
2018-09-14T22:39:35.097Z,3.30
2018-09-14T22:44:29.639Z,3.00
2018-09-14T22:49:24.155Z,2.87
2018-09-14T22:54:18.773Z,2.73
2018-09-14T22:59:13.445Z,2.60
2018-09-14T23:04:08.225Z,3.07
2018-09-14T23:09:02.839Z,3.37
2018-09-14T23:13:57.836Z,2.67
2018-09-14T23:18:52.274Z,3.03
2018-09-14T23:23:46.717Z,2.83
2018-09-14T23:28:41.201Z,2.97
2018-09-14T23:33:35.995Z,2.90
2018-09-14T23:38:30.789Z,2.80
2018-09-14T23:43:25.277Z,2.77
2018-09-14T23:48:19.871Z,3.13
2018-09-14T23:53:14.440Z,2.83
2018-09-14T23:58:09.424Z,2.83
